createdAt,value
2023-04-01T00:01:12.912Z,96917.50
2023-04-01T00:03:39.669Z,96905.03
2023-04-01T00:06:06.787Z,96905.81
2023-04-01T00:08:33.302Z,96914.09
2023-04-01T00:10:59.873Z,96907.91
2023-04-01T00:13:27.335Z,96911.88
2023-04-01T00:15:56.206Z,96908.03
2023-04-01T00:18:23.691Z,96901.97
2023-04-01T00:20:52.547Z,96905.75
2023-04-01T00:23:20.560Z,96903.56
2023-04-01T00:25:48.920Z,96901.72
2023-04-01T00:28:17.702Z,96891.28
2023-04-01T00:30:44.447Z,96898.16
2023-04-01T00:33:12.049Z,96900.69
2023-04-01T00:35:40.515Z,96904.44
2023-04-01T00:38:07.484Z,96900.06
2023-04-01T00:40:40.632Z,96894.00
2023-04-01T00:43:13.781Z,96906.38
2023-04-01T00:45:43.340Z,96892.31
2023-04-01T00:48:21.465Z,96898.72
2023-04-01T00:51:08.450Z,96906.06
2023-04-01T00:53:39.201Z,96904.34
2023-04-01T00:56:12.347Z,96906.63
2023-04-01T00:58:43.188Z,96893.88
2023-04-01T01:01:11.030Z,96891.31
2023-04-01T01:03:37.896Z,96896.59
2023-04-01T01:06:07.082Z,96891.00
2023-04-01T01:09:01.378Z,96892.84
2023-04-01T01:11:42.783Z,96901.41
2023-04-01T01:14:25.848Z,96894.31
2023-04-01T01:17:03.453Z,96895.44
2023-04-01T01:19:52.029Z,96899.97
2023-04-01T01:22:26.411Z,96890.63
2023-04-01T01:25:17.445Z,96891.63
2023-04-01T01:27:53.739Z,96892.75
2023-04-01T01:30:32.864Z,96882.28
2023-04-01T01:33:13.428Z,96891.56
2023-04-01T01:35:58.892Z,96890.19
2023-04-01T01:38:29.923Z,96895.31
2023-04-01T01:41:03.880Z,96889.66
2023-04-01T01:43:36.352Z,96879.00
2023-04-01T01:46:08.714Z,96881.09
2023-04-01T01:48:36.852Z,96874.84
2023-04-01T01:51:06.369Z,96871.91
2023-04-01T01:53:33.104Z,96874.53
2023-04-01T01:56:00.173Z,96878.34
2023-04-01T01:58:52.845Z,96874.31
2023-04-01T02:01:31.299Z,96879.94
2023-04-01T02:04:05.663Z,96881.56
2023-04-01T02:06:36.578Z,96875.50
2023-04-01T02:09:07.601Z,96867.56
2023-04-01T02:11:45.065Z,96874.63
2023-04-01T02:14:19.927Z,96869.59
2023-04-01T02:17:01.200Z,96878.50
2023-04-01T02:19:34.305Z,96869.50
2023-04-01T02:22:04.786Z,96879.34
2023-04-01T02:24:35.001Z,96863.53
2023-04-01T02:27:01.751Z,96860.75
2023-04-01T02:29:29.709Z,96860.09
2023-04-01T02:31:56.908Z,96873.09
2023-04-01T02:34:25.511Z,96867.19
2023-04-01T02:36:52.610Z,96860.66
2023-04-01T02:39:19.209Z,96868.13
2023-04-01T02:41:46.448Z,96865.03
2023-04-01T02:44:15.697Z,96875.03
2023-04-01T02:46:43.226Z,96861.41
2023-04-01T02:49:09.872Z,96865.72
2023-04-01T02:51:36.434Z,96860.81
2023-04-01T02:54:03.125Z,96865.63
2023-04-01T02:56:29.657Z,96858.91
2023-04-01T02:58:56.743Z,96856.81
2023-04-01T03:01:23.420Z,96857.16
2023-04-01T03:03:50.005Z,96858.69
2023-04-01T03:06:18.085Z,96858.50
2023-04-01T03:08:45.314Z,96849.28
2023-04-01T03:11:12.624Z,96856.22
2023-04-01T03:13:39.459Z,96859.66
2023-04-01T03:16:07.407Z,96853.03
2023-04-01T03:18:35.517Z,96856.59
2023-04-01T03:21:23.020Z,96865.66
2023-04-01T03:23:50.266Z,96854.69
2023-04-01T03:26:17.480Z,96846.00
2023-04-01T03:28:44.214Z,96855.63
2023-04-01T03:31:11.497Z,96859.06
2023-04-01T03:33:44.340Z,96857.22
2023-04-01T03:36:13.198Z,96852.16
2023-04-01T03:38:41.740Z,96853.16
2023-04-01T03:41:08.255Z,96857.47
2023-04-01T03:43:34.757Z,96843.53
2023-04-01T03:46:01.294Z,96846.16
2023-04-01T03:48:28.461Z,96849.59
2023-04-01T03:50:55.013Z,96836.50
2023-04-01T03:53:22.298Z,96839.38
2023-04-01T03:55:49.141Z,96837.41
2023-04-01T03:58:16.176Z,96845.47
2023-04-01T04:00:42.685Z,96837.59
2023-04-01T04:03:10.412Z,96846.22
2023-04-01T04:05:37.070Z,96848.13
2023-04-01T04:08:04.188Z,96837.66
2023-04-01T04:10:31.734Z,96844.97
2023-04-01T04:12:58.275Z,96844.00
2023-04-01T04:15:28.853Z,96843.94
2023-04-01T04:17:55.522Z,96841.34
2023-04-01T04:20:23.226Z,96849.22
2023-04-01T04:22:49.699Z,96847.63
2023-04-01T04:25:16.258Z,96845.66
2023-04-01T04:27:42.798Z,96847.91
2023-04-01T04:30:12.256Z,96853.16
2023-04-01T04:32:38.827Z,96850.16
2023-04-01T04:35:07.424Z,96850.53
2023-04-01T04:37:34.576Z,96853.53
2023-04-01T04:40:01.104Z,96844.69
2023-04-01T04:42:28.633Z,96857.59
2023-04-01T04:45:00.797Z,96848.75
2023-04-01T04:47:27.857Z,96853.44
2023-04-01T04:49:54.501Z,96851.59
2023-04-01T04:52:21.120Z,96846.53
2023-04-01T04:54:47.802Z,96843.56
2023-04-01T04:57:14.335Z,96846.63
2023-04-01T04:59:47.711Z,96857.91
2023-04-01T05:02:25.359Z,96841.28
2023-04-01T05:04:51.849Z,96840.31
2023-04-01T05:07:18.295Z,96837.28
2023-04-01T05:09:46.645Z,96841.66
2023-04-01T05:12:14.136Z,96843.50
2023-04-01T05:14:56.231Z,96845.47
2023-04-01T05:17:22.973Z,96842.94
2023-04-01T05:19:49.535Z,96844.91
2023-04-01T05:22:16.090Z,96845.09
2023-04-01T05:24:43.520Z,96831.97
2023-04-01T05:27:13.061Z,96846.72
2023-04-01T05:29:41.208Z,96841.91
2023-04-01T05:32:13.100Z,96847.53
2023-04-01T05:34:39.622Z,96844.09
2023-04-01T05:37:08.167Z,96835.63
2023-04-01T05:39:39.052Z,96835.44
2023-04-01T05:42:09.017Z,96839.28
2023-04-01T05:44:36.937Z,96835.44
2023-04-01T05:47:04.836Z,96822.06
2023-04-01T05:49:31.987Z,96812.13
2023-04-01T05:51:58.609Z,96822.66
2023-04-01T05:54:26.137Z,96816.78
2023-04-01T05:56:52.609Z,96814.06
2023-04-01T05:59:20.179Z,96814.81
2023-04-01T06:01:46.628Z,96823.06
2023-04-01T06:04:16.998Z,96818.09
2023-04-01T06:06:44.464Z,96828.00
2023-04-01T06:09:18.989Z,96831.22
2023-04-01T06:12:03.334Z,96832.59
2023-04-01T06:14:50.668Z,96837.66
2023-04-01T06:17:39.288Z,96846.97
2023-04-01T06:20:17.955Z,96857.69
2023-04-01T06:23:06.210Z,96837.13
2023-04-01T06:25:44.095Z,96853.09
2023-04-01T06:28:10.836Z,96847.63
2023-04-01T06:30:45.959Z,96847.63
2023-04-01T06:33:39.142Z,96850.41
2023-04-01T06:36:43.146Z,96849.38
2023-04-01T06:39:27.109Z,96854.06
2023-04-01T06:42:03.378Z,96848.34
2023-04-01T06:44:37.982Z,96857.63
2023-04-01T06:47:57.106Z,96851.97
2023-04-01T06:50:55.593Z,96842.41
2023-04-01T06:53:45.970Z,96838.41
2023-04-01T06:56:38.288Z,96845.63
2023-04-01T06:59:33.531Z,96834.63
2023-04-01T07:02:42.535Z,96839.88
2023-04-01T07:05:12.261Z,96842.78
2023-04-01T07:07:49.988Z,96834.97
2023-04-01T07:10:58.270Z,96844.81
2023-04-01T07:13:54.260Z,96833.56
2023-04-01T07:16:35.430Z,96831.31
2023-04-01T07:19:16.603Z,96836.56
2023-04-01T07:22:39.286Z,96846.19
2023-04-01T07:25:31.768Z,96841.75
2023-04-01T07:28:20.625Z,96843.66
2023-04-01T07:31:21.239Z,96852.13
2023-04-01T07:34:25.509Z,96865.50
2023-04-01T07:37:07.409Z,96857.31
2023-04-01T07:39:48.100Z,96867.97
2023-04-01T07:42:58.437Z,96874.53
2023-04-01T07:45:43.782Z,96862.50
2023-04-01T07:48:22.125Z,96867.66
2023-04-01T07:50:57.726Z,96864.72
2023-04-01T07:53:33.675Z,96868.38
2023-04-01T07:56:29.969Z,96875.91
2023-04-01T07:59:23.815Z,96878.09
2023-04-01T08:02:35.675Z,96876.88
2023-04-01T08:05:16.496Z,96877.94
2023-04-01T08:08:05.192Z,96885.75
2023-04-01T08:11:12.986Z,96876.16
2023-04-01T08:14:17.624Z,96888.63
2023-04-01T08:17:21.987Z,96888.50
2023-04-01T08:20:02.736Z,96888.63
2023-04-01T08:22:46.037Z,96887.75
2023-04-01T08:25:26.886Z,96893.16
2023-04-01T08:28:02.907Z,96898.66
2023-04-01T08:30:44.666Z,96901.28
2023-04-01T08:33:20.311Z,96895.44
2023-04-01T08:35:52.915Z,96900.25
2023-04-01T08:38:45.989Z,96898.28
2023-04-01T08:41:28.560Z,96900.19
2023-04-01T08:44:30.416Z,96898.59
2023-04-01T08:47:20.271Z,96909.19
2023-04-01T08:50:03.061Z,96905.44
2023-04-01T08:53:12.190Z,96903.59
2023-04-01T08:55:40.140Z,96908.56
2023-04-01T08:58:44.752Z,96908.03
2023-04-01T09:01:27.026Z,96914.69
2023-04-01T09:04:34.582Z,96911.16
2023-04-01T09:07:29.249Z,96921.81
2023-04-01T09:10:07.489Z,96923.47
2023-04-01T09:13:17.062Z,96919.66
2023-04-01T09:16:20.493Z,96922.63
2023-04-01T09:18:56.777Z,96923.78
2023-04-01T09:21:43.088Z,96924.69
2023-04-01T09:24:19.014Z,96926.97
2023-04-01T09:27:04.228Z,96925.34
2023-04-01T09:29:55.395Z,96922.50
2023-04-01T09:33:10.227Z,96929.84
2023-04-01T09:35:49.763Z,96933.84
2023-04-01T09:38:37.253Z,96935.16
2023-04-01T09:41:45.183Z,96930.69
2023-04-01T09:44:24.258Z,96942.25
2023-04-01T09:47:27.871Z,96940.75
2023-04-01T09:50:33.947Z,96950.69
2023-04-01T09:53:29.284Z,96946.84
2023-04-01T09:56:17.577Z,96946.03
2023-04-01T09:59:01.292Z,96953.56
2023-04-01T10:02:17.508Z,96952.56
2023-04-01T10:05:18.810Z,96949.59
2023-04-01T10:08:03.486Z,96962.16
2023-04-01T10:10:35.965Z,96955.59
2023-04-01T10:13:27.446Z,96952.97
2023-04-01T10:16:23.318Z,96953.75
2023-04-01T10:19:11.778Z,96959.13
2023-04-01T10:21:53.636Z,96964.53
2023-04-01T10:24:48.251Z,96961.81
2023-04-01T10:27:38.556Z,96966.41
2023-04-01T10:30:29.064Z,96966.47
2023-04-01T10:33:24.381Z,96956.03
2023-04-01T10:36:12.866Z,96959.84
2023-04-01T10:38:52.905Z,96964.44
2023-04-01T10:42:04.562Z,96961.22
2023-04-01T10:45:28.632Z,96964.44
2023-04-01T10:48:04.854Z,96969.00
2023-04-01T10:50:58.840Z,96965.78
2023-04-01T10:53:59.490Z,96965.78
2023-04-01T10:56:58.339Z,96963.16
2023-04-01T10:59:46.338Z,96971.47
2023-04-01T11:02:59.073Z,96968.28
2023-04-01T11:06:23.574Z,96968.50
2023-04-01T11:09:34.137Z,96982.50
2023-04-01T11:12:28.521Z,96989.03
2023-04-01T11:15:24.481Z,96991.81
2023-04-01T11:18:25.626Z,96980.59
2023-04-01T11:21:26.930Z,96986.41
2023-04-01T11:24:12.393Z,96978.84
2023-04-01T11:27:13.052Z,96976.22
2023-04-01T11:30:00.915Z,96986.06
2023-04-01T11:32:53.961Z,96993.63
2023-04-01T11:35:36.049Z,96988.03
2023-04-01T11:38:31.896Z,97003.28
2023-04-01T11:41:36.251Z,96993.91
2023-04-01T11:44:30.614Z,97000.31
2023-04-01T11:47:37.286Z,97004.56
2023-04-01T11:50:22.004Z,97008.44
2023-04-01T11:53:03.288Z,97006.75
2023-04-01T11:55:42.791Z,97013.38
2023-04-01T11:58:41.644Z,97014.66
2023-04-01T12:01:27.923Z,97019.59
2023-04-01T12:04:25.327Z,97020.16
2023-04-01T12:06:54.545Z,97026.72
2023-04-01T12:09:32.704Z,97031.31
2023-04-01T12:12:17.514Z,97031.75
2023-04-01T12:15:05.711Z,97039.28
2023-04-01T12:17:45.014Z,97038.72
2023-04-01T12:20:34.420Z,97031.59
2023-04-01T12:23:16.347Z,97040.66
2023-04-01T12:25:48.909Z,97038.69
2023-04-01T12:28:18.307Z,97041.88
2023-04-01T12:31:07.694Z,97040.25
2023-04-01T12:33:49.934Z,97039.72
2023-04-01T12:36:29.174Z,97045.88
2023-04-01T12:39:25.892Z,97060.81
2023-04-01T12:42:05.521Z,97049.97
2023-04-01T12:44:42.193Z,97053.00
2023-04-01T12:47:33.027Z,97058.06
2023-04-01T12:50:27.113Z,97052.81
2023-04-01T12:53:43.957Z,97056.13
2023-04-01T12:56:44.169Z,97053.53
2023-04-01T12:59:54.598Z,97063.84
2023-04-01T13:02:52.068Z,97053.78
2023-04-01T13:06:02.014Z,97067.84
2023-04-01T13:08:50.372Z,97059.13
2023-04-01T13:11:44.858Z,97066.13
2023-04-01T13:14:51.512Z,97069.69
2023-04-01T13:17:29.856Z,97077.84
2023-04-01T13:20:13.357Z,97076.91
2023-04-01T13:23:04.737Z,97080.06
2023-04-01T13:25:40.454Z,97064.25
2023-04-01T13:28:26.716Z,97080.25
2023-04-01T13:31:02.403Z,97086.06
2023-04-01T13:33:39.821Z,97091.00
2023-04-01T13:36:20.323Z,97088.25
2023-04-01T13:39:01.998Z,97091.16
2023-04-01T13:41:50.686Z,97090.34
2023-04-01T13:44:20.993Z,97087.38
2023-04-01T13:47:16.547Z,97082.56
2023-04-01T13:50:18.020Z,97097.56
2023-04-01T13:52:47.529Z,97094.19
2023-04-01T13:55:55.508Z,97097.78
2023-04-01T13:58:33.055Z,97096.91
2023-04-01T14:01:02.584Z,97107.59
2023-04-01T14:03:32.612Z,97109.28
2023-04-01T14:06:41.169Z,97111.97
2023-04-01T14:09:28.997Z,97114.59
2023-04-01T14:12:10.256Z,97113.31
2023-04-01T14:14:58.346Z,97107.56
2023-04-01T14:17:49.731Z,97108.28
2023-04-01T14:20:34.394Z,97101.28
2023-04-01T14:23:26.103Z,97105.66
2023-04-01T14:26:31.658Z,97115.03
2023-04-01T14:29:39.783Z,97114.94
2023-04-01T14:32:28.053Z,97118.63
2023-04-01T14:35:21.761Z,97119.53
2023-04-01T14:37:57.300Z,97115.38
2023-04-01T14:40:51.926Z,97117.22
2023-04-01T14:43:43.584Z,97134.34
2023-04-01T14:46:36.201Z,97136.38
2023-04-01T14:49:14.582Z,97137.44
2023-04-01T14:51:42.029Z,97138.00
2023-04-01T14:54:11.436Z,97129.41
2023-04-01T14:56:42.934Z,97136.16
2023-04-01T14:59:23.044Z,97134.53
2023-04-01T15:02:19.323Z,97137.50
2023-04-01T15:05:27.400Z,97133.38
2023-04-01T15:08:07.085Z,97141.59
2023-04-01T15:11:10.918Z,97141.47
2023-04-01T15:14:03.079Z,97150.00
2023-04-01T15:16:41.060Z,97142.66
2023-04-01T15:19:31.907Z,97147.38
2023-04-01T15:22:33.227Z,97147.97
2023-04-01T15:25:14.849Z,97150.84
2023-04-01T15:27:56.128Z,97160.59
2023-04-01T15:30:34.280Z,97156.38
2023-04-01T15:33:21.292Z,97157.75
2023-04-01T15:35:55.100Z,97159.00
2023-04-01T15:38:27.816Z,97162.81
2023-04-01T15:41:13.057Z,97157.09
2023-04-01T15:43:50.087Z,97164.84
2023-04-01T15:46:28.647Z,97173.22
2023-04-01T15:49:24.041Z,97164.22
2023-04-01T15:52:04.866Z,97168.03
2023-04-01T15:54:58.299Z,97176.97
2023-04-01T15:57:41.629Z,97183.94
2023-04-01T16:00:11.954Z,97179.94
2023-04-01T16:02:55.853Z,97183.66
2023-04-01T16:05:43.725Z,97177.09
2023-04-01T16:08:19.009Z,97192.22
2023-04-01T16:11:14.404Z,97188.81
2023-04-01T16:13:49.802Z,97188.41
2023-04-01T16:16:32.115Z,97193.91
2023-04-01T16:19:04.650Z,97207.16
2023-04-01T16:21:43.057Z,97213.78
2023-04-01T16:24:35.316Z,97222.66
2023-04-01T16:27:10.111Z,97212.59
2023-04-01T16:30:01.291Z,97214.81
2023-04-01T16:32:55.783Z,97221.25
2023-04-01T16:35:49.977Z,97223.75
2023-04-01T16:38:27.388Z,97218.69
2023-04-01T16:41:06.625Z,97234.13
2023-04-01T16:43:36.085Z,97231.22
2023-04-01T16:46:28.322Z,97227.91
2023-04-01T16:49:09.771Z,97227.97
2023-04-01T16:52:06.819Z,97236.91
2023-04-01T16:54:51.310Z,97236.63
2023-04-01T16:57:27.549Z,97228.06
2023-04-01T17:00:16.804Z,97239.41
2023-04-01T17:02:53.499Z,97238.66
2023-04-01T17:05:33.875Z,97230.91
2023-04-01T17:08:30.632Z,97237.28
2023-04-01T17:11:23.831Z,97240.50
2023-04-01T17:13:58.738Z,97241.72
2023-04-01T17:16:49.665Z,97249.56
2023-04-01T17:19:34.870Z,97252.22
2023-04-01T17:22:28.673Z,97248.59
2023-04-01T17:25:10.494Z,97251.47
2023-04-01T17:27:43.025Z,97248.75
2023-04-01T17:30:34.669Z,97246.75
2023-04-01T17:33:16.736Z,97260.38
2023-04-01T17:35:58.805Z,97252.91
2023-04-01T17:39:03.675Z,97259.47
2023-04-01T17:41:41.995Z,97265.66
2023-04-01T17:44:23.612Z,97275.44
2023-04-01T17:47:27.067Z,97273.03
2023-04-01T17:50:14.802Z,97270.03
2023-04-01T17:52:59.717Z,97281.75
2023-04-01T17:55:49.951Z,97289.63
2023-04-01T17:58:29.370Z,97285.59
2023-04-01T18:01:04.727Z,97281.66
2023-04-01T18:03:59.224Z,97297.16
2023-04-01T18:06:37.229Z,97300.97
2023-04-01T18:09:39.479Z,97300.97
2023-04-01T18:12:06.220Z,97309.91
2023-04-01T18:14:51.166Z,97311.28
2023-04-01T18:17:23.667Z,97310.56
2023-04-01T18:20:11.189Z,97319.63
2023-04-01T18:22:49.594Z,97321.81
2023-04-01T18:25:35.900Z,97320.69
2023-04-01T18:28:25.774Z,97323.91
2023-04-01T18:31:06.780Z,97333.22
2023-04-01T18:33:42.907Z,97338.09
2023-04-01T18:36:27.957Z,97342.78
2023-04-01T18:39:03.988Z,97341.91
2023-04-01T18:41:41.161Z,97351.03
2023-04-01T18:44:19.894Z,97351.66
2023-04-01T18:47:04.699Z,97351.50
2023-04-01T18:49:44.240Z,97362.97
2023-04-01T18:52:21.220Z,97366.84
2023-04-01T18:55:03.007Z,97375.91
2023-04-01T18:57:50.438Z,97383.41
2023-04-01T19:00:26.188Z,97382.28
2023-04-01T19:03:01.607Z,97390.78
2023-04-01T19:05:34.146Z,97397.69
2023-04-01T19:08:25.710Z,97399.69
2023-04-01T19:11:11.690Z,97395.63
2023-04-01T19:13:59.520Z,97403.38
2023-04-01T19:16:35.094Z,97406.38
2023-04-01T19:19:23.582Z,97409.25
2023-04-01T19:21:53.840Z,97409.25
2023-04-01T19:24:40.895Z,97418.34
2023-04-01T19:27:07.277Z,97410.47
2023-04-01T19:29:48.519Z,97420.63
2023-04-01T19:32:26.328Z,97419.38
2023-04-01T19:35:11.637Z,97423.22
2023-04-01T19:37:45.626Z,97418.19
2023-04-01T19:40:38.861Z,97424.06
2023-04-01T19:43:26.702Z,97423.31
2023-04-01T19:45:59.078Z,97430.31
2023-04-01T19:48:44.760Z,97430.91
2023-04-01T19:51:28.404Z,97436.97
2023-04-01T19:54:04.830Z,97432.94
2023-04-01T19:56:48.829Z,97439.03
2023-04-01T19:59:35.802Z,97444.28
2023-04-01T20:02:08.163Z,97441.03
2023-04-01T20:04:42.175Z,97447.31
2023-04-01T20:07:16.867Z,97443.66
2023-04-01T20:10:10.855Z,97443.66
2023-04-01T20:12:48.972Z,97449.53
2023-04-01T20:15:36.676Z,97447.91
2023-04-01T20:18:13.726Z,97453.59
2023-04-01T20:20:42.044Z,97456.59
2023-04-01T20:23:31.482Z,97465.34
2023-04-01T20:26:07.537Z,97461.91
2023-04-01T20:28:44.178Z,97467.00
2023-04-01T20:31:16.498Z,97463.97
2023-04-01T20:34:09.593Z,97469.66
2023-04-01T20:36:57.228Z,97477.72
2023-04-01T20:39:42.233Z,97474.69
2023-04-01T20:42:30.012Z,97474.06
2023-04-01T20:45:33.968Z,97472.69
2023-04-01T20:48:27.884Z,97482.81
2023-04-01T20:51:04.119Z,97477.31
2023-04-01T20:53:50.948Z,97479.56
2023-04-01T20:56:17.401Z,97486.00
2023-04-01T20:59:05.890Z,97484.16
2023-04-01T21:02:09.885Z,97486.41
2023-04-01T21:05:10.104Z,97489.06
2023-04-01T21:07:45.723Z,97491.91
2023-04-01T21:10:27.987Z,97489.44
2023-04-01T21:13:20.384Z,97491.50
2023-04-01T21:16:05.275Z,97491.69
2023-04-01T21:18:38.046Z,97490.91
2023-04-01T21:21:57.486Z,97493.16
2023-04-01T21:24:46.329Z,97504.50
2023-04-01T21:27:27.673Z,97507.50
2023-04-01T21:30:06.382Z,97505.97
2023-04-01T21:33:06.852Z,97512.44
2023-04-01T21:36:04.813Z,97509.84
2023-04-01T21:38:49.777Z,97516.50
2023-04-01T21:41:19.190Z,97520.56
2023-04-01T21:44:25.638Z,97515.72
2023-04-01T21:47:14.008Z,97513.84
2023-04-01T21:49:49.412Z,97518.13
2023-04-01T21:53:11.442Z,97520.56
2023-04-01T21:55:52.911Z,97526.00
2023-04-01T21:59:02.417Z,97524.41
2023-04-01T22:01:49.127Z,97520.34
2023-04-01T22:04:49.839Z,97532.50
2023-04-01T22:07:21.169Z,97539.78
2023-04-01T22:10:21.416Z,97543.63
2023-04-01T22:13:10.939Z,97554.72
2023-04-01T22:15:56.716Z,97555.97
2023-04-01T22:18:51.575Z,97553.94
2023-04-01T22:21:35.982Z,97554.31
2023-04-01T22:24:13.715Z,97548.84
2023-04-01T22:27:26.130Z,97570.72
2023-04-01T22:30:16.230Z,97557.19
2023-04-01T22:32:53.196Z,97560.41
2023-04-01T22:35:44.486Z,97569.50
2023-04-01T22:38:32.529Z,97566.47
2023-04-01T22:41:13.320Z,97568.06
2023-04-01T22:43:45.038Z,97568.88
2023-04-01T22:46:50.730Z,97568.09
2023-04-01T22:49:43.084Z,97562.25
2023-04-01T22:52:29.911Z,97571.16
2023-04-01T22:55:01.870Z,97578.00
2023-04-01T22:57:31.514Z,97577.00
2023-04-01T23:00:18.623Z,97573.75
2023-04-01T23:03:05.960Z,97576.19
2023-04-01T23:05:37.504Z,97579.84
2023-04-01T23:08:34.463Z,97581.84
2023-04-01T23:11:05.224Z,97584.69
2023-04-01T23:14:04.518Z,97578.00
2023-04-01T23:16:37.913Z,97572.34
2023-04-01T23:19:15.573Z,97583.84
2023-04-01T23:21:52.844Z,97574.75
2023-04-01T23:24:31.314Z,97579.00
2023-04-01T23:27:06.717Z,97583.06
2023-04-01T23:29:37.585Z,97577.63
2023-04-01T23:32:05.305Z,97585.91
2023-04-01T23:34:34.642Z,97589.97
2023-04-01T23:37:17.065Z,97590.53
2023-04-01T23:39:49.857Z,97599.44
2023-04-01T23:42:21.908Z,97604.91
2023-04-01T23:44:52.031Z,97600.88
2023-04-01T23:47:28.588Z,97602.69
2023-04-01T23:49:59.118Z,97601.47
2023-04-01T23:52:32.307Z,97602.88
2023-04-01T23:55:43.364Z,97613.19
2023-04-01T23:58:11.849Z,97610.97
